Park City, Utah
Current Conditions -  °F | °C
As of 5:15 PM on Monday 20 Oct 2014 (Local Time) from K36U Reporting Station
Broken Clouds Broken Clouds  
Wind Chill: 72°   Ceiling: 11000
Heat Index: 72°   Visibility: 10mi
Dew Point: 32°   Wind: 5mph
Humidity: 23%   Direction: 250°WSW
Pressure: 30.02"   Gusts: NA
Location:  40.66°N, 111.49°W
Report Text: K36U 202315Z AUTO 25004KT 10SM SCT095 BKN110 22/00 A3002 RMK AO2
Loading
Personal Weather Stations






























Interactive Weather Map
Tropical Storm Tracking
New forecast layout! Learn more

10-Day Weather Forecast

Advertisements
Track Severe Weather on mobile